sensor_id;sensor_type;location;lat;lon;timestamp;P1;durP1;ratioP1;P2;durP2;ratioP2
11651;SDS011;5882;48.818;9.114;2023-03-24T00:00:41;1.83;;;1.65;;
11651;SDS011;5882;48.818;9.114;2023-03-24T00:03:30;3.08;;;1.75;;
11651;SDS011;5882;48.818;9.114;2023-03-24T00:06:16;2.40;;;2.05;;
11651;SDS011;5882;48.818;9.114;2023-03-24T00:09:05;1.92;;;1.63;;
11651;SDS011;5882;48.818;9.114;2023-03-24T00:11:50;1.52;;;1.38;;
11651;SDS011;5882;48.818;9.114;2023-03-24T00:14:37;2.25;;;2.05;;
11651;SDS011;5882;48.818;9.114;2023-03-24T00:17:23;1.98;;;1.60;;
11651;SDS011;5882;48.818;9.114;2023-03-24T00:20:13;1.52;;;1.42;;
11651;SDS011;5882;48.818;9.114;2023-03-24T00:22:59;1.88;;;1.77;;
11651;SDS011;5882;48.818;9.114;2023-03-24T00:25:45;1.50;;;1.40;;
11651;SDS011;5882;48.818;9.114;2023-03-24T00:28:32;1.63;;;1.52;;
11651;SDS011;5882;48.818;9.114;2023-03-24T00:31:21;1.80;;;1.70;;
11651;SDS011;5882;48.818;9.114;2023-03-24T00:34:07;2.15;;;1.90;;
11651;SDS011;5882;48.818;9.114;2023-03-24T00:36:53;1.77;;;1.67;;
11651;SDS011;5882;48.818;9.114;2023-03-24T00:39:40;1.80;;;1.70;;
11651;SDS011;5882;48.818;9.114;2023-03-24T00:42:26;1.70;;;1.45;;
11651;SDS011;5882;48.818;9.114;2023-03-24T00:45:12;2.92;;;2.00;;
11651;SDS011;5882;48.818;9.114;2023-03-24T00:47:59;2.08;;;1.80;;
11651;SDS011;5882;48.818;9.114;2023-03-24T00:50:48;3.33;;;1.70;;
11651;SDS011;5882;48.818;9.114;2023-03-24T00:53:34;1.75;;;1.65;;
11651;SDS011;5882;48.818;9.114;2023-03-24T00:56:20;1.60;;;1.50;;
11651;SDS011;5882;48.818;9.114;2023-03-24T00:59:05;1.85;;;1.40;;
11651;SDS011;5882;48.818;9.114;2023-03-24T01:01:52;1.55;;;1.45;;
11651;SDS011;5882;48.818;9.114;2023-03-24T01:04:40;2.72;;;1.50;;
11651;SDS011;5882;48.818;9.114;2023-03-24T01:07:29;1.60;;;1.50;;
11651;SDS011;5882;48.818;9.114;2023-03-24T01:10:16;1.73;;;1.48;;
11651;SDS011;5882;48.818;9.114;2023-03-24T01:13:02;1.50;;;1.40;;
11651;SDS011;5882;48.818;9.114;2023-03-24T01:15:48;1.58;;;1.42;;
11651;SDS011;5882;48.818;9.114;2023-03-24T01:18:34;1.60;;;1.50;;
11651;SDS011;5882;48.818;9.114;2023-03-24T01:21:24;1.45;;;1.35;;
11651;SDS011;5882;48.818;9.114;2023-03-24T01:24:10;1.50;;;1.40;;
11651;SDS011;5882;48.818;9.114;2023-03-24T01:26:57;1.63;;;1.50;;
11651;SDS011;5882;48.818;9.114;2023-03-24T01:29:42;1.77;;;1.67;;
11651;SDS011;5882;48.818;9.114;2023-03-24T01:32:31;1.60;;;1.50;;
11651;SDS011;5882;48.818;9.114;2023-03-24T01:35:16;1.70;;;1.60;;
11651;SDS011;5882;48.818;9.114;2023-03-24T01:38:07;1.50;;;1.40;;
11651;SDS011;5882;48.818;9.114;2023-03-24T01:40:53;1.60;;;1.50;;
11651;SDS011;5882;48.818;9.114;2023-03-24T01:43:38;1.88;;;1.40;;
11651;SDS011;5882;48.818;9.114;2023-03-24T01:46:23;1.23;;;1.17;;
11651;SDS011;5882;48.818;9.114;2023-03-24T01:49:12;2.35;;;1.85;;
11651;SDS011;5882;48.818;9.114;2023-03-24T01:51:59;1.33;;;1.23;;
11651;SDS011;5882;48.818;9.114;2023-03-24T01:54:47;1.65;;;1.30;;
11651;SDS011;5882;48.818;9.114;2023-03-24T01:57:33;1.48;;;1.38;;
11651;SDS011;5882;48.818;9.114;2023-03-24T02:00:19;1.50;;;1.40;;
11651;SDS011;5882;48.818;9.114;2023-03-24T02:03:05;2.25;;;1.38;;
11651;SDS011;5882;48.818;9.114;2023-03-24T02:05:54;1.33;;;1.20;;
11651;SDS011;5882;48.818;9.114;2023-03-24T02:08:43;1.42;;;1.33;;
11651;SDS011;5882;48.818;9.114;2023-03-24T02:11:33;1.33;;;1.23;;
11651;SDS011;5882;48.818;9.114;2023-03-24T02:14:19;1.75;;;1.65;;
11651;SDS011;5882;48.818;9.114;2023-03-24T02:17:14;2.05;;;1.55;;
11651;SDS011;5882;48.818;9.114;2023-03-24T02:20:26;1.60;;;1.50;;
11651;SDS011;5882;48.818;9.114;2023-03-24T02:26:39;1.58;;;1.33;;
11651;SDS011;5882;48.818;9.114;2023-03-24T02:29:43;1.58;;;1.25;;
11651;SDS011;5882;48.818;9.114;2023-03-24T02:35:50;1.42;;;1.33;;
11651;SDS011;5882;48.818;9.114;2023-03-24T02:41:41;1.30;;;1.20;;
11651;SDS011;5882;48.818;9.114;2023-03-24T02:44:28;1.55;;;1.45;;
11651;SDS011;5882;48.818;9.114;2023-03-24T02:47:17;1.30;;;1.20;;
11651;SDS011;5882;48.818;9.114;2023-03-24T02:50:05;1.50;;;1.40;;
11651;SDS011;5882;48.818;9.114;2023-03-24T02:52:59;1.10;;;1.10;;
11651;SDS011;5882;48.818;9.114;2023-03-24T02:55:48;1.75;;;1.33;;
11651;SDS011;5882;48.818;9.114;2023-03-24T02:58:37;1.38;;;1.30;;
11651;SDS011;5882;48.818;9.114;2023-03-24T03:01:25;1.27;;;1.17;;
11651;SDS011;5882;48.818;9.114;2023-03-24T03:04:18;1.20;;;1.15;;
11651;SDS011;5882;48.818;9.114;2023-03-24T03:07:06;1.70;;;1.50;;
11651;SDS011;5882;48.818;9.114;2023-03-24T03:09:55;1.65;;;1.55;;
11651;SDS011;5882;48.818;9.114;2023-03-24T03:12:41;1.50;;;1.38;;
11651;SDS011;5882;48.818;9.114;2023-03-24T03:15:33;1.30;;;1.20;;
11651;SDS011;5882;48.818;9.114;2023-03-24T03:18:20;1.52;;;1.30;;
11651;SDS011;5882;48.818;9.114;2023-03-24T03:21:09;1.35;;;1.25;;
11651;SDS011;5882;48.818;9.114;2023-03-24T03:23:56;1.50;;;1.40;;
11651;SDS011;5882;48.818;9.114;2023-03-24T03:26:42;1.45;;;1.15;;
11651;SDS011;5882;48.818;9.114;2023-03-24T03:29:31;1.40;;;1.30;;
11651;SDS011;5882;48.818;9.114;2023-03-24T03:32:24;1.85;;;1.65;;
11651;SDS011;5882;48.818;9.114;2023-03-24T03:35:11;1.23;;;1.13;;
11651;SDS011;5882;48.818;9.114;2023-03-24T03:38:01;1.30;;;1.23;;
11651;SDS011;5882;48.818;9.114;2023-03-24T03:40:51;1.30;;;1.20;;
11651;SDS011;5882;48.818;9.114;2023-03-24T03:43:38;1.42;;;1.33;;
11651;SDS011;5882;48.818;9.114;2023-03-24T03:46:24;1.48;;;1.38;;
11651;SDS011;5882;48.818;9.114;2023-03-24T03:49:14;1.30;;;1.20;;
11651;SDS011;5882;48.818;9.114;2023-03-24T03:52:00;1.67;;;1.40;;
11651;SDS011;5882;48.818;9.114;2023-03-24T03:54:48;1.20;;;1.20;;
11651;SDS011;5882;48.818;9.114;2023-03-24T03:57:34;1.45;;;1.30;;
11651;SDS011;5882;48.818;9.114;2023-03-24T04:00:20;1.40;;;1.30;;
11651;SDS011;5882;48.818;9.114;2023-03-24T04:03:11;1.63;;;1.52;;
11651;SDS011;5882;48.818;9.114;2023-03-24T04:06:07;1.60;;;1.50;;
11651;SDS011;5882;48.818;9.114;2023-03-24T04:08:58;1.40;;;1.30;;
11651;SDS011;5882;48.818;9.114;2023-03-24T04:11:57;1.63;;;1.45;;
11651;SDS011;5882;48.818;9.114;2023-03-24T04:18:05;1.88;;;1.38;;
11651;SDS011;5882;48.818;9.114;2023-03-24T04:21:12;1.30;;;1.20;;
11651;SDS011;5882;48.818;9.114;2023-03-24T04:24:04;1.40;;;1.30;;
11651;SDS011;5882;48.818;9.114;2023-03-24T04:26:54;1.70;;;1.50;;
11651;SDS011;5882;48.818;9.114;2023-03-24T04:29:45;1.80;;;1.20;;
11651;SDS011;5882;48.818;9.114;2023-03-24T04:32:38;1.60;;;1.50;;
11651;SDS011;5882;48.818;9.114;2023-03-24T04:35:26;1.67;;;1.58;;
11651;SDS011;5882;48.818;9.114;2023-03-24T04:38:20;1.55;;;1.45;;
11651;SDS011;5882;48.818;9.114;2023-03-24T04:41:08;1.40;;;1.30;;
11651;SDS011;5882;48.818;9.114;2023-03-24T04:43:53;1.27;;;1.17;;
11651;SDS011;5882;48.818;9.114;2023-03-24T04:46:40;1.67;;;1.50;;
11651;SDS011;5882;48.818;9.114;2023-03-24T04:49:26;2.33;;;1.45;;
11651;SDS011;5882;48.818;9.114;2023-03-24T04:52:11;1.40;;;1.30;;
11651;SDS011;5882;48.818;9.114;2023-03-24T04:54:58;1.73;;;1.40;;
11651;SDS011;5882;48.818;9.114;2023-03-24T04:57:47;1.60;;;1.50;;
11651;SDS011;5882;48.818;9.114;2023-03-24T05:00:32;1.58;;;1.38;;
11651;SDS011;5882;48.818;9.114;2023-03-24T05:03:19;1.52;;;1.42;;
11651;SDS011;5882;48.818;9.114;2023-03-24T05:06:08;1.30;;;1.20;;
11651;SDS011;5882;48.818;9.114;2023-03-24T05:08:54;1.45;;;1.27;;
11651;SDS011;5882;48.818;9.114;2023-03-24T05:11:43;1.42;;;1.33;;
11651;SDS011;5882;48.818;9.114;2023-03-24T05:14:28;2.92;;;1.40;;
11651;SDS011;5882;48.818;9.114;2023-03-24T05:17:14;1.48;;;1.38;;
11651;SDS011;5882;48.818;9.114;2023-03-24T05:19:59;3.15;;;1.50;;
11651;SDS011;5882;48.818;9.114;2023-03-24T05:22:45;1.33;;;1.23;;
11651;SDS011;5882;48.818;9.114;2023-03-24T05:25:32;1.40;;;1.30;;
11651;SDS011;5882;48.818;9.114;2023-03-24T05:28:27;2.35;;;1.90;;
11651;SDS011;5882;48.818;9.114;2023-03-24T05:31:16;1.63;;;1.52;;
11651;SDS011;5882;48.818;9.114;2023-03-24T05:34:02;1.55;;;1.45;;
11651;SDS011;5882;48.818;9.114;2023-03-24T05:36:47;1.48;;;1.25;;
11651;SDS011;5882;48.818;9.114;2023-03-24T05:39:33;1.60;;;1.50;;
11651;SDS011;5882;48.818;9.114;2023-03-24T05:42:19;1.75;;;1.65;;
11651;SDS011;5882;48.818;9.114;2023-03-24T05:45:07;1.65;;;1.55;;
11651;SDS011;5882;48.818;9.114;2023-03-24T05:47:53;1.70;;;1.42;;
11651;SDS011;5882;48.818;9.114;2023-03-24T05:50:38;2.78;;;1.58;;
11651;SDS011;5882;48.818;9.114;2023-03-24T05:53:24;2.22;;;2.00;;
11651;SDS011;5882;48.818;9.114;2023-03-24T05:56:09;2.35;;;1.60;;
11651;SDS011;5882;48.818;9.114;2023-03-24T05:58:55;1.63;;;1.52;;
11651;SDS011;5882;48.818;9.114;2023-03-24T06:01:42;1.25;;;1.25;;
11651;SDS011;5882;48.818;9.114;2023-03-24T06:04:28;1.50;;;1.40;;
11651;SDS011;5882;48.818;9.114;2023-03-24T06:07:15;1.60;;;1.50;;
11651;SDS011;5882;48.818;9.114;2023-03-24T06:10:01;2.30;;;1.67;;
11651;SDS011;5882;48.818;9.114;2023-03-24T06:12:47;1.58;;;1.48;;
11651;SDS011;5882;48.818;9.114;2023-03-24T06:15:32;2.55;;;1.63;;
11651;SDS011;5882;48.818;9.114;2023-03-24T06:18:20;1.73;;;1.63;;
11651;SDS011;5882;48.818;9.114;2023-03-24T06:21:16;1.63;;;1.52;;
11651;SDS011;5882;48.818;9.114;2023-03-24T06:24:03;1.63;;;1.52;;
11651;SDS011;5882;48.818;9.114;2023-03-24T06:26:48;1.77;;;1.63;;
11651;SDS011;5882;48.818;9.114;2023-03-24T06:29:33;1.90;;;1.70;;
11651;SDS011;5882;48.818;9.114;2023-03-24T06:32:19;2.33;;;2.15;;
11651;SDS011;5882;48.818;9.114;2023-03-24T06:35:06;1.60;;;1.50;;
11651;SDS011;5882;48.818;9.114;2023-03-24T06:37:54;1.95;;;1.75;;
11651;SDS011;5882;48.818;9.114;2023-03-24T06:40:39;1.80;;;1.70;;
11651;SDS011;5882;48.818;9.114;2023-03-24T06:43:24;1.77;;;1.67;;
11651;SDS011;5882;48.818;9.114;2023-03-24T06:46:12;1.83;;;1.67;;
11651;SDS011;5882;48.818;9.114;2023-03-24T06:49:02;1.70;;;1.60;;
11651;SDS011;5882;48.818;9.114;2023-03-24T06:52:01;1.83;;;1.67;;
11651;SDS011;5882;48.818;9.114;2023-03-24T06:54:47;2.15;;;1.85;;
11651;SDS011;5882;48.818;9.114;2023-03-24T06:57:33;2.88;;;1.85;;
11651;SDS011;5882;48.818;9.114;2023-03-24T07:00:18;1.70;;;1.60;;
11651;SDS011;5882;48.818;9.114;2023-03-24T07:03:03;1.63;;;1.52;;
11651;SDS011;5882;48.818;9.114;2023-03-24T07:05:50;1.65;;;1.55;;
11651;SDS011;5882;48.818;9.114;2023-03-24T07:08:37;1.50;;;1.40;;
11651;SDS011;5882;48.818;9.114;2023-03-24T07:11:23;1.50;;;1.40;;
11651;SDS011;5882;48.818;9.114;2023-03-24T07:14:09;2.67;;;1.70;;
11651;SDS011;5882;48.818;9.114;2023-03-24T07:16:54;1.40;;;1.30;;
11651;SDS011;5882;48.818;9.114;2023-03-24T07:19:39;1.60;;;1.50;;
11651;SDS011;5882;48.818;9.114;2023-03-24T07:22:25;1.33;;;1.23;;
11651;SDS011;5882;48.818;9.114;2023-03-24T07:25:18;2.10;;;1.55;;
11651;SDS011;5882;48.818;9.114;2023-03-24T07:28:04;1.40;;;1.30;;
11651;SDS011;5882;48.818;9.114;2023-03-24T07:30:49;1.65;;;1.45;;
11651;SDS011;5882;48.818;9.114;2023-03-24T07:33:37;1.83;;;1.65;;
11651;SDS011;5882;48.818;9.114;2023-03-24T07:36:25;1.70;;;1.60;;
11651;SDS011;5882;48.818;9.114;2023-03-24T07:39:10;1.70;;;1.50;;
11651;SDS011;5882;48.818;9.114;2023-03-24T07:41:59;1.77;;;1.40;;
11651;SDS011;5882;48.818;9.114;2023-03-24T07:44:44;1.63;;;1.48;;
11651;SDS011;5882;48.818;9.114;2023-03-24T07:47:34;1.50;;;1.40;;
11651;SDS011;5882;48.818;9.114;2023-03-24T07:50:26;1.88;;;1.55;;
11651;SDS011;5882;48.818;9.114;2023-03-24T07:53:24;1.70;;;1.60;;
11651;SDS011;5882;48.818;9.114;2023-03-24T07:56:18;1.40;;;1.30;;
11651;SDS011;5882;48.818;9.114;2023-03-24T07:59:14;1.77;;;1.60;;
11651;SDS011;5882;48.818;9.114;2023-03-24T08:02:03;1.42;;;1.33;;
11651;SDS011;5882;48.818;9.114;2023-03-24T08:04:50;1.52;;;1.42;;
11651;SDS011;5882;48.818;9.114;2023-03-24T08:07:47;1.40;;;1.30;;
11651;SDS011;5882;48.818;9.114;2023-03-24T08:10:38;1.83;;;1.67;;
11651;SDS011;5882;48.818;9.114;2023-03-24T08:13:28;1.42;;;1.33;;
11651;SDS011;5882;48.818;9.114;2023-03-24T08:16:15;1.33;;;1.23;;
11651;SDS011;5882;48.818;9.114;2023-03-24T08:19:04;1.60;;;1.40;;
11651;SDS011;5882;48.818;9.114;2023-03-24T08:21:54;1.60;;;1.50;;
11651;SDS011;5882;48.818;9.114;2023-03-24T08:24:39;1.85;;;1.70;;
11651;SDS011;5882;48.818;9.114;2023-03-24T08:27:25;1.60;;;1.50;;
11651;SDS011;5882;48.818;9.114;2023-03-24T08:30:12;3.35;;;1.70;;
11651;SDS011;5882;48.818;9.114;2023-03-24T08:33:02;1.52;;;1.42;;
11651;SDS011;5882;48.818;9.114;2023-03-24T08:35:47;1.40;;;1.30;;
11651;SDS011;5882;48.818;9.114;2023-03-24T08:38:34;2.05;;;1.95;;
11651;SDS011;5882;48.818;9.114;2023-03-24T08:41:21;2.00;;;1.45;;
11651;SDS011;5882;48.818;9.114;2023-03-24T08:44:17;1.80;;;1.67;;
11651;SDS011;5882;48.818;9.114;2023-03-24T08:47:03;1.60;;;1.50;;
11651;SDS011;5882;48.818;9.114;2023-03-24T08:50:04;1.65;;;1.55;;
11651;SDS011;5882;48.818;9.114;2023-03-24T08:52:51;1.67;;;1.58;;
11651;SDS011;5882;48.818;9.114;2023-03-24T08:55:36;1.50;;;1.40;;
11651;SDS011;5882;48.818;9.114;2023-03-24T08:58:24;2.30;;;1.50;;
11651;SDS011;5882;48.818;9.114;2023-03-24T09:01:10;1.85;;;1.40;;
11651;SDS011;5882;48.818;9.114;2023-03-24T09:03:57;1.77;;;1.67;;
11651;SDS011;5882;48.818;9.114;2023-03-24T09:06:44;1.23;;;1.20;;
11651;SDS011;5882;48.818;9.114;2023-03-24T09:09:29;1.30;;;1.17;;
11651;SDS011;5882;48.818;9.114;2023-03-24T09:12:17;1.42;;;1.20;;
11651;SDS011;5882;48.818;9.114;2023-03-24T09:15:05;1.45;;;1.25;;
11651;SDS011;5882;48.818;9.114;2023-03-24T09:17:58;1.10;;;1.10;;
11651;SDS011;5882;48.818;9.114;2023-03-24T09:20:47;1.35;;;1.25;;
11651;SDS011;5882;48.818;9.114;2023-03-24T09:23:38;1.52;;;1.42;;
11651;SDS011;5882;48.818;9.114;2023-03-24T09:26:26;1.25;;;1.15;;
11651;SDS011;5882;48.818;9.114;2023-03-24T09:29:12;1.45;;;1.35;;
11651;SDS011;5882;48.818;9.114;2023-03-24T09:32:01;1.40;;;1.30;;
11651;SDS011;5882;48.818;9.114;2023-03-24T09:34:47;1.30;;;1.20;;
11651;SDS011;5882;48.818;9.114;2023-03-24T09:37:34;1.52;;;1.30;;
11651;SDS011;5882;48.818;9.114;2023-03-24T09:40:23;1.60;;;1.50;;
11651;SDS011;5882;48.818;9.114;2023-03-24T09:43:23;1.45;;;1.35;;
11651;SDS011;5882;48.818;9.114;2023-03-24T09:46:10;1.40;;;1.30;;
11651;SDS011;5882;48.818;9.114;2023-03-24T09:48:56;1.40;;;1.30;;
11651;SDS011;5882;48.818;9.114;2023-03-24T09:51:44;1.30;;;1.20;;
11651;SDS011;5882;48.818;9.114;2023-03-24T09:54:30;1.25;;;1.15;;
11651;SDS011;5882;48.818;9.114;2023-03-24T09:57:19;1.40;;;1.30;;
11651;SDS011;5882;48.818;9.114;2023-03-24T10:00:15;1.30;;;1.20;;
11651;SDS011;5882;48.818;9.114;2023-03-24T10:03:01;1.25;;;1.15;;
11651;SDS011;5882;48.818;9.114;2023-03-24T10:05:55;1.35;;;1.25;;
11651;SDS011;5882;48.818;9.114;2023-03-24T10:08:43;1.23;;;1.20;;
11651;SDS011;5882;48.818;9.114;2023-03-24T10:11:34;1.17;;;1.10;;
11651;SDS011;5882;48.818;9.114;2023-03-24T10:14:30;1.35;;;1.25;;
11651;SDS011;5882;48.818;9.114;2023-03-24T10:17:22;1.10;;;1.10;;
11651;SDS011;5882;48.818;9.114;2023-03-24T10:20:15;1.23;;;1.13;;
11651;SDS011;5882;48.818;9.114;2023-03-24T10:23:13;1.30;;;1.20;;
11651;SDS011;5882;48.818;9.114;2023-03-24T10:26:08;1.10;;;1.10;;
11651;SDS011;5882;48.818;9.114;2023-03-24T10:29:02;1.13;;;1.05;;
11651;SDS011;5882;48.818;9.114;2023-03-24T10:31:52;1.30;;;1.20;;
11651;SDS011;5882;48.818;9.114;2023-03-24T10:34:38;1.23;;;1.08;;
11651;SDS011;5882;48.818;9.114;2023-03-24T10:37:25;1.35;;;1.10;;
11651;SDS011;5882;48.818;9.114;2023-03-24T10:40:13;1.05;;;1.05;;
11651;SDS011;5882;48.818;9.114;2023-03-24T10:43:01;1.17;;;1.10;;
11651;SDS011;5882;48.818;9.114;2023-03-24T10:45:48;1.33;;;1.23;;
11651;SDS011;5882;48.818;9.114;2023-03-24T10:48:39;1.10;;;1.10;;
11651;SDS011;5882;48.818;9.114;2023-03-24T10:51:26;0.95;;;0.95;;
11651;SDS011;5882;48.818;9.114;2023-03-24T10:54:12;1.10;;;1.10;;
11651;SDS011;5882;48.818;9.114;2023-03-24T10:57:00;1.00;;;1.00;;
11651;SDS011;5882;48.818;9.114;2023-03-24T10:59:48;1.00;;;1.00;;
11651;SDS011;5882;48.818;9.114;2023-03-24T11:02:35;1.15;;;1.15;;
11651;SDS011;5882;48.818;9.114;2023-03-24T11:05:24;1.85;;;1.35;;
11651;SDS011;5882;48.818;9.114;2023-03-24T11:08:16;0.90;;;0.90;;
11651;SDS011;5882;48.818;9.114;2023-03-24T11:11:20;0.93;;;0.93;;
11651;SDS011;5882;48.818;9.114;2023-03-24T11:14:17;1.00;;;1.00;;
11651;SDS011;5882;48.818;9.114;2023-03-24T11:17:08;0.98;;;0.98;;
11651;SDS011;5882;48.818;9.114;2023-03-24T11:19:55;1.23;;;1.13;;
11651;SDS011;5882;48.818;9.114;2023-03-24T11:22:42;1.00;;;1.00;;
11651;SDS011;5882;48.818;9.114;2023-03-24T11:25:34;1.05;;;0.98;;
11651;SDS011;5882;48.818;9.114;2023-03-24T11:28:21;1.00;;;1.00;;
11651;SDS011;5882;48.818;9.114;2023-03-24T11:34:30;1.02;;;1.02;;
11651;SDS011;5882;48.818;9.114;2023-03-24T11:37:17;2.58;;;1.00;;
11651;SDS011;5882;48.818;9.114;2023-03-24T11:40:21;2.25;;;1.10;;
11651;SDS011;5882;48.818;9.114;2023-03-24T11:43:10;0.93;;;0.93;;
11651;SDS011;5882;48.818;9.114;2023-03-24T11:46:04;1.00;;;1.00;;
11651;SDS011;5882;48.818;9.114;2023-03-24T11:48:52;1.20;;;1.10;;
11651;SDS011;5882;48.818;9.114;2023-03-24T11:51:40;0.70;;;0.70;;
11651;SDS011;5882;48.818;9.114;2023-03-24T11:54:26;1.67;;;1.20;;
11651;SDS011;5882;48.818;9.114;2023-03-24T11:57:17;0.90;;;0.90;;
11651;SDS011;5882;48.818;9.114;2023-03-24T12:00:06;0.80;;;0.80;;
11651;SDS011;5882;48.818;9.114;2023-03-24T12:03:03;1.05;;;1.05;;
11651;SDS011;5882;48.818;9.114;2023-03-24T12:05:53;0.93;;;0.90;;
11651;SDS011;5882;48.818;9.114;2023-03-24T12:08:42;1.05;;;1.05;;
11651;SDS011;5882;48.818;9.114;2023-03-24T12:11:31;0.90;;;0.90;;
11651;SDS011;5882;48.818;9.114;2023-03-24T12:14:25;0.90;;;0.90;;
11651;SDS011;5882;48.818;9.114;2023-03-24T12:17:16;0.70;;;0.70;;
11651;SDS011;5882;48.818;9.114;2023-03-24T12:23:07;0.77;;;0.77;;
11651;SDS011;5882;48.818;9.114;2023-03-24T12:25:59;0.75;;;0.75;;
11651;SDS011;5882;48.818;9.114;2023-03-24T12:28:52;0.88;;;0.88;;
11651;SDS011;5882;48.818;9.114;2023-03-24T12:31:47;0.70;;;0.70;;
11651;SDS011;5882;48.818;9.114;2023-03-24T12:34:47;0.75;;;0.75;;
11651;SDS011;5882;48.818;9.114;2023-03-24T12:37:38;0.80;;;0.80;;
11651;SDS011;5882;48.818;9.114;2023-03-24T12:40:37;1.23;;;0.90;;
11651;SDS011;5882;48.818;9.114;2023-03-24T12:43:35;0.70;;;0.70;;
11651;SDS011;5882;48.818;9.114;2023-03-24T12:46:32;0.90;;;0.90;;
11651;SDS011;5882;48.818;9.114;2023-03-24T12:49:23;0.60;;;0.60;;
11651;SDS011;5882;48.818;9.114;2023-03-24T12:52:19;0.80;;;0.80;;
11651;SDS011;5882;48.818;9.114;2023-03-24T12:55:12;0.60;;;0.60;;
11651;SDS011;5882;48.818;9.114;2023-03-24T12:58:03;0.80;;;0.80;;
11651;SDS011;5882;48.818;9.114;2023-03-24T13:00:56;0.70;;;0.70;;
11651;SDS011;5882;48.818;9.114;2023-03-24T13:03:42;0.80;;;0.80;;
11651;SDS011;5882;48.818;9.114;2023-03-24T13:06:32;1.05;;;0.70;;
11651;SDS011;5882;48.818;9.114;2023-03-24T13:09:21;0.85;;;0.85;;
11651;SDS011;5882;48.818;9.114;2023-03-24T13:12:10;0.60;;;0.60;;
11651;SDS011;5882;48.818;9.114;2023-03-24T13:15:01;0.70;;;0.70;;
11651;SDS011;5882;48.818;9.114;2023-03-24T13:17:49;0.77;;;0.77;;
11651;SDS011;5882;48.818;9.114;2023-03-24T13:20:38;0.70;;;0.70;;
11651;SDS011;5882;48.818;9.114;2023-03-24T13:23:30;0.70;;;0.70;;
11651;SDS011;5882;48.818;9.114;2023-03-24T13:26:18;0.70;;;0.70;;
11651;SDS011;5882;48.818;9.114;2023-03-24T13:29:12;0.70;;;0.70;;
11651;SDS011;5882;48.818;9.114;2023-03-24T13:31:58;0.68;;;0.68;;
11651;SDS011;5882;48.818;9.114;2023-03-24T13:34:50;0.90;;;0.90;;
11651;SDS011;5882;48.818;9.114;2023-03-24T13:37:42;1.00;;;1.00;;
11651;SDS011;5882;48.818;9.114;2023-03-24T13:40:31;0.93;;;0.90;;
11651;SDS011;5882;48.818;9.114;2023-03-24T13:43:22;0.90;;;0.85;;
11651;SDS011;5882;48.818;9.114;2023-03-24T13:46:11;0.73;;;0.73;;
11651;SDS011;5882;48.818;9.114;2023-03-24T13:48:57;1.13;;;0.70;;
11651;SDS011;5882;48.818;9.114;2023-03-24T13:51:43;0.70;;;0.70;;
11651;SDS011;5882;48.818;9.114;2023-03-24T13:54:29;0.82;;;0.82;;
11651;SDS011;5882;48.818;9.114;2023-03-24T13:57:19;0.70;;;0.70;;
11651;SDS011;5882;48.818;9.114;2023-03-24T14:00:15;1.08;;;0.80;;
11651;SDS011;5882;48.818;9.114;2023-03-24T14:03:11;0.90;;;0.90;;
11651;SDS011;5882;48.818;9.114;2023-03-24T14:05:57;1.35;;;0.93;;
11651;SDS011;5882;48.818;9.114;2023-03-24T14:08:53;0.80;;;0.80;;
11651;SDS011;5882;48.818;9.114;2023-03-24T14:11:49;1.23;;;0.90;;
11651;SDS011;5882;48.818;9.114;2023-03-24T14:17:55;0.73;;;0.73;;
11651;SDS011;5882;48.818;9.114;2023-03-24T14:21:00;0.80;;;0.80;;
11651;SDS011;5882;48.818;9.114;2023-03-24T14:24:00;0.90;;;0.90;;
11651;SDS011;5882;48.818;9.114;2023-03-24T14:26:47;0.95;;;0.95;;
11651;SDS011;5882;48.818;9.114;2023-03-24T14:29:46;0.85;;;0.85;;
11651;SDS011;5882;48.818;9.114;2023-03-24T14:32:36;0.70;;;0.70;;
11651;SDS011;5882;48.818;9.114;2023-03-24T14:35:31;1.67;;;0.90;;
11651;SDS011;5882;48.818;9.114;2023-03-24T14:38:20;0.80;;;0.80;;
11651;SDS011;5882;48.818;9.114;2023-03-24T14:41:07;0.80;;;0.80;;
11651;SDS011;5882;48.818;9.114;2023-03-24T14:43:57;0.73;;;0.73;;
11651;SDS011;5882;48.818;9.114;2023-03-24T14:46:42;1.60;;;0.80;;
11651;SDS011;5882;48.818;9.114;2023-03-24T14:49:30;0.80;;;0.80;;
11651;SDS011;5882;48.818;9.114;2023-03-24T14:52:19;1.00;;;0.90;;
11651;SDS011;5882;48.818;9.114;2023-03-24T14:55:09;1.27;;;0.90;;
11651;SDS011;5882;48.818;9.114;2023-03-24T14:57:58;0.80;;;0.80;;
11651;SDS011;5882;48.818;9.114;2023-03-24T15:00:45;0.80;;;0.80;;
11651;SDS011;5882;48.818;9.114;2023-03-24T15:03:32;0.85;;;0.85;;
11651;SDS011;5882;48.818;9.114;2023-03-24T15:06:21;0.70;;;0.70;;
11651;SDS011;5882;48.818;9.114;2023-03-24T15:09:10;0.70;;;0.70;;
11651;SDS011;5882;48.818;9.114;2023-03-24T15:11:58;0.70;;;0.70;;
11651;SDS011;5882;48.818;9.114;2023-03-24T15:14:45;0.70;;;0.70;;
11651;SDS011;5882;48.818;9.114;2023-03-24T15:17:30;0.70;;;0.70;;
11651;SDS011;5882;48.818;9.114;2023-03-24T15:20:24;0.65;;;0.65;;
11651;SDS011;5882;48.818;9.114;2023-03-24T15:23:17;1.45;;;0.70;;
11651;SDS011;5882;48.818;9.114;2023-03-24T15:26:11;0.70;;;0.70;;
11651;SDS011;5882;48.818;9.114;2023-03-24T15:28:57;1.00;;;1.00;;
11651;SDS011;5882;48.818;9.114;2023-03-24T15:31:42;0.80;;;0.80;;
11651;SDS011;5882;48.818;9.114;2023-03-24T15:34:28;0.70;;;0.70;;
11651;SDS011;5882;48.818;9.114;2023-03-24T15:37:18;0.70;;;0.70;;
11651;SDS011;5882;48.818;9.114;2023-03-24T15:40:04;0.70;;;0.70;;
11651;SDS011;5882;48.818;9.114;2023-03-24T15:42:51;0.80;;;0.80;;
11651;SDS011;5882;48.818;9.114;2023-03-24T15:45:42;1.10;;;0.90;;
11651;SDS011;5882;48.818;9.114;2023-03-24T15:48:30;0.65;;;0.65;;
11651;SDS011;5882;48.818;9.114;2023-03-24T15:51:17;0.68;;;0.68;;
11651;SDS011;5882;48.818;9.114;2023-03-24T15:54:02;0.70;;;0.70;;
11651;SDS011;5882;48.818;9.114;2023-03-24T16:00:06;0.70;;;0.70;;
11651;SDS011;5882;48.818;9.114;2023-03-24T16:02:59;0.70;;;0.70;;
11651;SDS011;5882;48.818;9.114;2023-03-24T16:05:45;0.80;;;0.80;;
11651;SDS011;5882;48.818;9.114;2023-03-24T16:08:34;0.70;;;0.70;;
11651;SDS011;5882;48.818;9.114;2023-03-24T16:11:21;0.70;;;0.70;;
11651;SDS011;5882;48.818;9.114;2023-03-24T16:14:11;0.70;;;0.70;;
11651;SDS011;5882;48.818;9.114;2023-03-24T16:16:59;0.77;;;0.77;;
11651;SDS011;5882;48.818;9.114;2023-03-24T16:19:45;0.77;;;0.77;;
11651;SDS011;5882;48.818;9.114;2023-03-24T16:22:30;0.80;;;0.80;;
11651;SDS011;5882;48.818;9.114;2023-03-24T16:25:15;0.80;;;0.80;;
11651;SDS011;5882;48.818;9.114;2023-03-24T16:28:00;0.77;;;0.77;;
11651;SDS011;5882;48.818;9.114;2023-03-24T16:33:47;0.60;;;0.60;;
11651;SDS011;5882;48.818;9.114;2023-03-24T16:36:32;0.80;;;0.80;;
11651;SDS011;5882;48.818;9.114;2023-03-24T16:39:18;0.70;;;0.70;;
11651;SDS011;5882;48.818;9.114;2023-03-24T16:42:04;0.80;;;0.80;;
11651;SDS011;5882;48.818;9.114;2023-03-24T16:44:49;0.90;;;0.90;;
11651;SDS011;5882;48.818;9.114;2023-03-24T16:47:35;0.70;;;0.70;;
11651;SDS011;5882;48.818;9.114;2023-03-24T16:50:23;0.80;;;0.80;;
11651;SDS011;5882;48.818;9.114;2023-03-24T16:53:11;0.80;;;0.80;;
11651;SDS011;5882;48.818;9.114;2023-03-24T16:55:57;0.80;;;0.73;;
11651;SDS011;5882;48.818;9.114;2023-03-24T16:58:42;0.60;;;0.60;;
11651;SDS011;5882;48.818;9.114;2023-03-24T17:01:28;0.73;;;0.73;;
11651;SDS011;5882;48.818;9.114;2023-03-24T17:04:16;0.80;;;0.80;;
11651;SDS011;5882;48.818;9.114;2023-03-24T17:07:03;0.80;;;0.80;;
11651;SDS011;5882;48.818;9.114;2023-03-24T17:09:49;0.70;;;0.70;;
11651;SDS011;5882;48.818;9.114;2023-03-24T17:12:33;0.85;;;0.82;;
11651;SDS011;5882;48.818;9.114;2023-03-24T17:15:19;1.00;;;1.00;;
11651;SDS011;5882;48.818;9.114;2023-03-24T17:18:05;0.98;;;0.98;;
11651;SDS011;5882;48.818;9.114;2023-03-24T17:20:51;1.05;;;0.82;;
11651;SDS011;5882;48.818;9.114;2023-03-24T17:23:37;1.00;;;0.90;;
11651;SDS011;5882;48.818;9.114;2023-03-24T17:26:23;0.85;;;0.85;;
11651;SDS011;5882;48.818;9.114;2023-03-24T17:29:08;0.80;;;0.80;;
11651;SDS011;5882;48.818;9.114;2023-03-24T17:31:55;1.08;;;0.98;;
11651;SDS011;5882;48.818;9.114;2023-03-24T17:34:40;0.98;;;0.98;;
11651;SDS011;5882;48.818;9.114;2023-03-24T17:37:26;1.00;;;1.00;;
11651;SDS011;5882;48.818;9.114;2023-03-24T17:40:14;1.20;;;1.10;;